sensor_id;sensor_type;location;lat;lon;timestamp;pressure;altitude;pressure_sealevel;temperature;humidity
74778;BME280;63298;53.164;8.610;2023-04-25T00:01:15;100789.16;;;8.68;76.38
74778;BME280;63298;53.164;8.610;2023-04-25T00:03:41;100787.09;;;8.64;76.01
74778;BME280;63298;53.164;8.610;2023-04-25T00:06:06;100796.44;;;8.63;75.77
74778;BME280;63298;53.164;8.610;2023-04-25T00:08:32;100792.84;;;8.62;75.65
74778;BME280;63298;53.164;8.610;2023-04-25T00:10:58;100799.19;;;8.63;74.89
74778;BME280;63298;53.164;8.610;2023-04-25T00:13:24;100810.00;;;8.58;75.13
74778;BME280;63298;53.164;8.610;2023-04-25T00:15:50;100796.31;;;8.51;75.57
74778;BME280;63298;53.164;8.610;2023-04-25T00:18:15;100804.56;;;8.51;75.65
74778;BME280;63298;53.164;8.610;2023-04-25T00:20:40;100809.38;;;8.56;75.40
74778;BME280;63298;53.164;8.610;2023-04-25T00:23:06;100813.38;;;8.60;75.64
74778;BME280;63298;53.164;8.610;2023-04-25T00:25:31;100820.00;;;8.52;75.34
74778;BME280;63298;53.164;8.610;2023-04-25T00:27:56;100822.66;;;8.59;75.11
74778;BME280;63298;53.164;8.610;2023-04-25T00:30:22;100818.69;;;8.55;75.06
74778;BME280;63298;53.164;8.610;2023-04-25T00:32:47;100824.81;;;8.57;74.81
74778;BME280;63298;53.164;8.610;2023-04-25T00:35:12;100824.19;;;8.55;74.87
74778;BME280;63298;53.164;8.610;2023-04-25T00:37:38;100824.19;;;8.55;74.94
74778;BME280;63298;53.164;8.610;2023-04-25T00:40:05;100824.53;;;8.40;74.88
74778;BME280;63298;53.164;8.610;2023-04-25T00:42:31;100825.16;;;8.42;75.07
74778;BME280;63298;53.164;8.610;2023-04-25T00:44:57;100832.56;;;8.42;74.38
74778;BME280;63298;53.164;8.610;2023-04-25T00:47:23;100826.69;;;8.38;74.19
74778;BME280;63298;53.164;8.610;2023-04-25T00:49:48;100828.41;;;8.33;73.89
74778;BME280;63298;53.164;8.610;2023-04-25T00:52:14;100835.53;;;8.40;74.53
74778;BME280;63298;53.164;8.610;2023-04-25T00:54:39;100834.50;;;8.35;73.52
74778;BME280;63298;53.164;8.610;2023-04-25T00:57:05;100830.69;;;8.36;74.30
74778;BME280;63298;53.164;8.610;2023-04-25T00:59:30;100834.75;;;8.33;73.42
74778;BME280;63298;53.164;8.610;2023-04-25T01:01:56;100829.63;;;8.37;73.92
74778;BME280;63298;53.164;8.610;2023-04-25T01:04:21;100833.44;;;8.36;73.75
74778;BME280;63298;53.164;8.610;2023-04-25T01:06:47;100825.41;;;8.34;73.33
74778;BME280;63298;53.164;8.610;2023-04-25T01:09:13;100828.81;;;8.30;73.43
74778;BME280;63298;53.164;8.610;2023-04-25T01:11:38;100827.78;;;8.31;73.38
74778;BME280;63298;53.164;8.610;2023-04-25T01:14:04;100826.72;;;8.25;72.90
74778;BME280;63298;53.164;8.610;2023-04-25T01:16:29;100824.81;;;8.25;73.37
74778;BME280;63298;53.164;8.610;2023-04-25T01:18:55;100834.34;;;8.23;72.97
74778;BME280;63298;53.164;8.610;2023-04-25T01:21:21;100828.22;;;8.21;73.38
74778;BME280;63298;53.164;8.610;2023-04-25T01:23:46;100827.38;;;8.20;72.83
74778;BME280;63298;53.164;8.610;2023-04-25T01:26:12;100824.28;;;8.10;72.20
74778;BME280;63298;53.164;8.610;2023-04-25T01:28:39;100822.16;;;8.12;72.50
74778;BME280;63298;53.164;8.610;2023-04-25T01:31:05;100834.84;;;8.13;72.47
74778;BME280;63298;53.164;8.610;2023-04-25T01:33:30;100839.06;;;8.09;72.22
74778;BME280;63298;53.164;8.610;2023-04-25T01:35:55;100842.66;;;8.10;72.04
74778;BME280;63298;53.164;8.610;2023-04-25T01:38:21;100843.34;;;8.05;72.21
74778;BME280;63298;53.164;8.610;2023-04-25T01:40:46;100862.38;;;8.00;71.88
74778;BME280;63298;53.164;8.610;2023-04-25T01:43:12;100859.63;;;8.00;72.50
74778;BME280;63298;53.164;8.610;2023-04-25T01:45:38;100861.97;;;7.97;72.56
74778;BME280;63298;53.164;8.610;2023-04-25T01:48:03;100867.94;;;7.94;72.16
74778;BME280;63298;53.164;8.610;2023-04-25T01:50:29;100870.03;;;7.92;72.50
74778;BME280;63298;53.164;8.610;2023-04-25T01:52:55;100870.44;;;7.95;72.56
74778;BME280;63298;53.164;8.610;2023-04-25T01:55:20;100876.78;;;7.96;72.51
74778;BME280;63298;53.164;8.610;2023-04-25T01:57:45;100880.16;;;7.98;72.72
74778;BME280;63298;53.164;8.610;2023-04-25T02:00:11;100879.75;;;7.94;72.70
74778;BME280;63298;53.164;8.610;2023-04-25T02:02:37;100877.63;;;7.96;73.03
74778;BME280;63298;53.164;8.610;2023-04-25T02:05:02;100888.59;;;7.96;72.86
74778;BME280;63298;53.164;8.610;2023-04-25T02:07:28;100885.47;;;7.93;73.11
74778;BME280;63298;53.164;8.610;2023-04-25T02:09:53;100890.09;;;7.92;73.11
74778;BME280;63298;53.164;8.610;2023-04-25T02:12:18;100894.56;;;7.87;72.44
74778;BME280;63298;53.164;8.610;2023-04-25T02:14:43;100900.91;;;7.87;72.90
74778;BME280;63298;53.164;8.610;2023-04-25T02:17:09;100897.75;;;7.84;73.01
74778;BME280;63298;53.164;8.610;2023-04-25T02:19:34;100903.00;;;7.85;72.77
74778;BME280;63298;53.164;8.610;2023-04-25T02:22:00;100909.81;;;7.82;72.73
74778;BME280;63298;53.164;8.610;2023-04-25T02:24:25;100910.00;;;7.81;72.77
74778;BME280;63298;53.164;8.610;2023-04-25T02:26:50;100908.97;;;7.82;73.22
74778;BME280;63298;53.164;8.610;2023-04-25T02:29:16;100906.88;;;7.77;72.99
74778;BME280;63298;53.164;8.610;2023-04-25T02:31:41;100906.03;;;7.77;72.51
74778;BME280;63298;53.164;8.610;2023-04-25T02:34:08;100903.09;;;7.72;72.84
74778;BME280;63298;53.164;8.610;2023-04-25T02:36:33;100890.00;;;7.67;72.80
74778;BME280;63298;53.164;8.610;2023-04-25T02:38:58;100903.53;;;7.69;72.40
74778;BME280;63298;53.164;8.610;2023-04-25T02:41:24;100898.25;;;7.67;72.77
74778;BME280;63298;53.164;8.610;2023-04-25T02:43:49;100902.25;;;7.65;72.33
74778;BME280;63298;53.164;8.610;2023-04-25T02:46:14;100898.50;;;7.59;72.39
74778;BME280;63298;53.164;8.610;2023-04-25T02:48:40;100901.44;;;7.58;72.53
74778;BME280;63298;53.164;8.610;2023-04-25T02:51:05;100898.91;;;7.56;72.44
74778;BME280;63298;53.164;8.610;2023-04-25T02:53:30;100899.97;;;7.55;72.14
74778;BME280;63298;53.164;8.610;2023-04-25T02:55:56;100901.03;;;7.54;72.48
74778;BME280;63298;53.164;8.610;2023-04-25T02:58:21;100899.75;;;7.50;71.97
74778;BME280;63298;53.164;8.610;2023-04-25T03:00:46;100897.44;;;7.54;72.08
74778;BME280;63298;53.164;8.610;2023-04-25T03:03:12;100899.97;;;7.55;71.72
74778;BME280;63298;53.164;8.610;2023-04-25T03:05:37;100901.25;;;7.53;72.69
74778;BME280;63298;53.164;8.610;2023-04-25T03:08:03;100904.84;;;7.53;71.87
74778;BME280;63298;53.164;8.610;2023-04-25T03:10:28;100907.78;;;7.52;72.05
74778;BME280;63298;53.164;8.610;2023-04-25T03:12:54;100895.56;;;7.48;72.16
74778;BME280;63298;53.164;8.610;2023-04-25T03:15:19;100900.22;;;7.41;72.25
74778;BME280;63298;53.164;8.610;2023-04-25T03:17:44;100900.66;;;7.37;72.05
74778;BME280;63298;53.164;8.610;2023-04-25T03:20:11;100901.72;;;7.36;72.24
74778;BME280;63298;53.164;8.610;2023-04-25T03:22:36;100894.75;;;7.34;72.18
74778;BME280;63298;53.164;8.610;2023-04-25T03:25:02;100902.75;;;7.35;72.60
74778;BME280;63298;53.164;8.610;2023-04-25T03:27:27;100893.28;;;7.31;72.00
74778;BME280;63298;53.164;8.610;2023-04-25T03:29:52;100900.44;;;7.32;72.53
74778;BME280;63298;53.164;8.610;2023-04-25T03:32:18;100901.75;;;7.30;72.64
74778;BME280;63298;53.164;8.610;2023-04-25T03:34:43;100903.41;;;7.31;72.71
74778;BME280;63298;53.164;8.610;2023-04-25T03:37:09;100903.19;;;7.32;71.89
74778;BME280;63298;53.164;8.610;2023-04-25T03:39:34;100903.19;;;7.32;72.51
74778;BME280;63298;53.164;8.610;2023-04-25T03:42:00;100904.69;;;7.35;71.66
74778;BME280;63298;53.164;8.610;2023-04-25T03:44:25;100911.84;;;7.36;72.02
74778;BME280;63298;53.164;8.610;2023-04-25T03:46:50;100909.72;;;7.38;71.73
74778;BME280;63298;53.164;8.610;2023-04-25T03:49:16;100912.69;;;7.36;71.79
74778;BME280;63298;53.164;8.610;2023-04-25T03:51:41;100911.84;;;7.36;71.92
74778;BME280;63298;53.164;8.610;2023-04-25T03:54:07;100917.97;;;7.31;71.56
74778;BME280;63298;53.164;8.610;2023-04-25T03:56:32;100928.31;;;7.29;71.86
74778;BME280;63298;53.164;8.610;2023-04-25T03:58:57;100927.69;;;7.27;71.58
74778;BME280;63298;53.164;8.610;2023-04-25T04:01:23;100936.56;;;7.29;71.25
74778;BME280;63298;53.164;8.610;2023-04-25T04:03:48;100932.31;;;7.27;71.40
74778;BME280;63298;53.164;8.610;2023-04-25T04:06:13;100929.38;;;7.22;71.45
74778;BME280;63298;53.164;8.610;2023-04-25T04:08:38;100928.97;;;7.18;71.15
74778;BME280;63298;53.164;8.610;2023-04-25T04:11:04;100937.41;;;7.17;71.73
74778;BME280;63298;53.164;8.610;2023-04-25T04:13:29;100937.00;;;7.13;71.51
74778;BME280;63298;53.164;8.610;2023-04-25T04:15:54;100943.75;;;7.17;71.57
74778;BME280;63298;53.164;8.610;2023-04-25T04:18:20;100949.22;;;7.17;71.39
74778;BME280;63298;53.164;8.610;2023-04-25T04:20:45;100957.66;;;7.22;71.90
74778;BME280;63298;53.164;8.610;2023-04-25T04:23:11;100958.50;;;7.23;71.71
74778;BME280;63298;53.164;8.610;2023-04-25T04:25:36;100951.75;;;7.19;71.10
74778;BME280;63298;53.164;8.610;2023-04-25T04:28:02;100964.63;;;7.18;71.33
74778;BME280;63298;53.164;8.610;2023-04-25T04:30:27;100973.91;;;7.17;71.27
74778;BME280;63298;53.164;8.610;2023-04-25T04:32:53;100982.75;;;7.06;70.21
74778;BME280;63298;53.164;8.610;2023-04-25T04:35:18;100982.56;;;7.08;70.39
74778;BME280;63298;53.164;8.610;2023-04-25T04:37:43;100978.38;;;7.05;69.77
74778;BME280;63298;53.164;8.610;2023-04-25T04:40:09;100978.78;;;7.09;69.34
74778;BME280;63298;53.164;8.610;2023-04-25T04:42:35;100975.19;;;7.02;69.27
74778;BME280;63298;53.164;8.610;2023-04-25T04:45:00;100980.47;;;7.10;69.68
74778;BME280;63298;53.164;8.610;2023-04-25T04:47:25;100977.72;;;7.10;69.31
74778;BME280;63298;53.164;8.610;2023-04-25T04:49:51;100985.53;;;7.13;69.25
74778;BME280;63298;53.164;8.610;2023-04-25T04:52:16;100986.59;;;7.18;69.82
74778;BME280;63298;53.164;8.610;2023-04-25T04:54:41;100987.00;;;7.22;69.91
74778;BME280;63298;53.164;8.610;2023-04-25T04:57:07;100993.97;;;7.24;69.61
74778;BME280;63298;53.164;8.610;2023-04-25T04:59:32;100993.75;;;7.26;69.57
74778;BME280;63298;53.164;8.610;2023-04-25T05:01:57;100994.38;;;7.28;69.70
74778;BME280;63298;53.164;8.610;2023-04-25T05:04:22;100987.19;;;7.27;69.43
74778;BME280;63298;53.164;8.610;2023-04-25T05:06:48;100995.22;;;7.28;70.02
74778;BME280;63298;53.164;8.610;2023-04-25T05:09:13;100997.31;;;7.26;69.76
74778;BME280;63298;53.164;8.610;2023-04-25T05:11:38;101004.31;;;7.29;69.41
74778;BME280;63298;53.164;8.610;2023-04-25T05:14:04;101001.78;;;7.27;69.81
74778;BME280;63298;53.164;8.610;2023-04-25T05:16:29;100998.16;;;7.20;69.19
74778;BME280;63298;53.164;8.610;2023-04-25T05:18:54;101003.66;;;7.20;69.21
74778;BME280;63298;53.164;8.610;2023-04-25T05:21:20;101006.41;;;7.20;70.01
74778;BME280;63298;53.164;8.610;2023-04-25T05:23:45;101008.31;;;7.20;69.90
74778;BME280;63298;53.164;8.610;2023-04-25T05:26:10;101012.97;;;7.19;69.84
74778;BME280;63298;53.164;8.610;2023-04-25T05:28:36;101020.56;;;7.17;69.53
74778;BME280;63298;53.164;8.610;2023-04-25T05:31:01;101022.03;;;7.13;69.86
74778;BME280;63298;53.164;8.610;2023-04-25T05:33:27;101017.19;;;7.15;69.37
74778;BME280;63298;53.164;8.610;2023-04-25T05:35:52;101026.03;;;7.17;70.23
74778;BME280;63298;53.164;8.610;2023-04-25T05:38:17;101018.03;;;7.09;69.93
74778;BME280;63298;53.164;8.610;2023-04-25T05:40:42;101028.34;;;7.07;70.03
74778;BME280;63298;53.164;8.610;2023-04-25T05:43:08;101039.31;;;7.07;69.69
74778;BME280;63298;53.164;8.610;2023-04-25T05:45:33;101028.13;;;7.02;69.74
74778;BME280;63298;53.164;8.610;2023-04-25T05:47:58;101035.31;;;7.03;69.59
74778;BME280;63298;53.164;8.610;2023-04-25T05:50:24;101041.00;;;7.02;69.91
74778;BME280;63298;53.164;8.610;2023-04-25T05:52:49;101043.53;;;7.03;70.09
74778;BME280;63298;53.164;8.610;2023-04-25T05:55:15;101040.59;;;7.05;70.13
74778;BME280;63298;53.164;8.610;2023-04-25T05:57:40;101045.22;;;7.11;69.88
74778;BME280;63298;53.164;8.610;2023-04-25T06:00:06;101043.75;;;7.08;70.40
74778;BME280;63298;53.164;8.610;2023-04-25T06:02:31;101053.25;;;7.12;69.99
74778;BME280;63298;53.164;8.610;2023-04-25T06:04:56;101046.28;;;7.16;69.61
74778;BME280;63298;53.164;8.610;2023-04-25T06:07:22;101056.44;;;7.22;70.32
74778;BME280;63298;53.164;8.610;2023-04-25T06:09:47;101056.44;;;7.22;69.78
74778;BME280;63298;53.164;8.610;2023-04-25T06:12:12;101054.31;;;7.31;70.04
74778;BME280;63298;53.164;8.610;2023-04-25T06:14:46;101068.25;;;7.36;69.77
74778;BME280;63298;53.164;8.610;2023-04-25T06:17:12;101054.31;;;7.37;69.79
74778;BME280;63298;53.164;8.610;2023-04-25T06:19:39;101050.13;;;7.35;68.61
74778;BME280;63298;53.164;8.610;2023-04-25T06:22:05;101046.75;;;7.40;68.59
74778;BME280;63298;53.164;8.610;2023-04-25T06:24:30;101058.94;;;7.50;68.69
74778;BME280;63298;53.164;8.610;2023-04-25T06:26:56;101067.22;;;7.63;68.55
74778;BME280;63298;53.164;8.610;2023-04-25T06:29:22;101065.50;;;7.69;68.54
74778;BME280;63298;53.164;8.610;2023-04-25T06:31:49;101020.53;;;7.50;68.32
74778;BME280;63298;53.164;8.610;2023-04-25T06:34:15;101059.16;;;7.75;67.89
74778;BME280;63298;53.164;8.610;2023-04-25T06:36:40;101047.97;;;7.70;68.15
74778;BME280;63298;53.164;8.610;2023-04-25T06:39:05;101069.09;;;7.89;67.02
74778;BME280;63298;53.164;8.610;2023-04-25T06:41:32;101031.47;;;7.76;67.54
74778;BME280;63298;53.164;8.610;2023-04-25T06:43:57;101046.91;;;7.84;66.31
74778;BME280;63298;53.164;8.610;2023-04-25T06:46:23;101061.44;;;7.98;66.20
74778;BME280;63298;53.164;8.610;2023-04-25T06:48:48;101058.09;;;7.89;66.51
74778;BME280;63298;53.164;8.610;2023-04-25T06:51:13;101076.63;;;8.00;65.81
74778;BME280;63298;53.164;8.610;2023-04-25T06:53:39;101076.00;;;8.05;66.30
74778;BME280;63298;53.164;8.610;2023-04-25T06:56:05;101048.97;;;7.95;65.95
74778;BME280;63298;53.164;8.610;2023-04-25T06:58:30;101070.53;;;7.98;65.49
74778;BME280;63298;53.164;8.610;2023-04-25T07:00:56;101063.97;;;7.99;66.09
74778;BME280;63298;53.164;8.610;2023-04-25T07:03:22;101062.25;;;8.05;65.13
74778;BME280;63298;53.164;8.610;2023-04-25T07:05:47;101063.75;;;8.07;65.17
74778;BME280;63298;53.164;8.610;2023-04-25T07:08:12;101063.09;;;8.12;65.44
74778;BME280;63298;53.164;8.610;2023-04-25T07:10:38;101076.38;;;8.21;65.82
74778;BME280;63298;53.164;8.610;2023-04-25T07:13:03;101098.38;;;8.28;64.94
74778;BME280;63298;53.164;8.610;2023-04-25T07:15:29;101067.94;;;8.16;64.98
74778;BME280;63298;53.164;8.610;2023-04-25T07:17:54;101040.09;;;8.00;63.61
74778;BME280;63298;53.164;8.610;2023-04-25T07:20:19;101069.44;;;8.12;63.33
74778;BME280;63298;53.164;8.610;2023-04-25T07:22:45;101096.84;;;8.39;64.23
74778;BME280;63298;53.164;8.610;2023-04-25T07:25:10;101095.38;;;8.43;64.21
74778;BME280;63298;53.164;8.610;2023-04-25T07:27:36;101078.91;;;8.30;62.81
74778;BME280;63298;53.164;8.610;2023-04-25T07:30:01;101078.25;;;8.41;63.51
74778;BME280;63298;53.164;8.610;2023-04-25T07:32:27;101098.28;;;8.61;62.57
74778;BME280;63298;53.164;8.610;2023-04-25T07:34:52;101082.59;;;8.68;62.97
74778;BME280;63298;53.164;8.610;2023-04-25T07:37:17;101065.44;;;8.73;60.00
74778;BME280;63298;53.164;8.610;2023-04-25T07:39:43;101073.59;;;8.92;62.28
74778;BME280;63298;53.164;8.610;2023-04-25T07:42:08;101076.34;;;8.92;60.63
74778;BME280;63298;53.164;8.610;2023-04-25T07:44:34;101076.34;;;8.92;59.30
74778;BME280;63298;53.164;8.610;2023-04-25T07:47:00;101078.81;;;9.00;60.08
74778;BME280;63298;53.164;8.610;2023-04-25T07:49:25;101102.34;;;8.96;58.79
74778;BME280;63298;53.164;8.610;2023-04-25T07:51:50;101079.97;;;8.80;60.43
74778;BME280;63298;53.164;8.610;2023-04-25T07:54:16;101095.78;;;8.97;60.39
74778;BME280;63298;53.164;8.610;2023-04-25T07:56:42;101095.81;;;8.84;59.47
74778;BME280;63298;53.164;8.610;2023-04-25T07:59:07;101093.94;;;8.78;60.09
74778;BME280;63298;53.164;8.610;2023-04-25T08:01:34;101118.53;;;8.73;60.13
74778;BME280;63298;53.164;8.610;2023-04-25T08:03:59;101124.06;;;8.66;61.76
74778;BME280;63298;53.164;8.610;2023-04-25T08:06:25;101117.53;;;8.54;62.33
74778;BME280;63298;53.164;8.610;2023-04-25T08:08:50;101127.50;;;8.49;62.87
74778;BME280;63298;53.164;8.610;2023-04-25T08:11:16;101129.63;;;8.40;63.40
74778;BME280;63298;53.164;8.610;2023-04-25T08:13:41;101120.13;;;8.36;63.30
74778;BME280;63298;53.164;8.610;2023-04-25T08:16:06;101138.94;;;8.39;62.91
74778;BME280;63298;53.164;8.610;2023-04-25T08:18:32;101142.97;;;8.43;63.01
74778;BME280;63298;53.164;8.610;2023-04-25T08:20:57;101155.63;;;8.44;62.73
74778;BME280;63298;53.164;8.610;2023-04-25T08:23:22;101170.41;;;8.50;63.23
74778;BME280;63298;53.164;8.610;2023-04-25T08:25:49;101162.00;;;8.38;61.83
74778;BME280;63298;53.164;8.610;2023-04-25T08:28:15;101141.50;;;8.21;60.69
74778;BME280;63298;53.164;8.610;2023-04-25T08:30:40;101160.09;;;8.25;61.46
74778;BME280;63298;53.164;8.610;2023-04-25T08:33:05;101177.41;;;8.52;62.53
74778;BME280;63298;53.164;8.610;2023-04-25T08:35:31;101156.72;;;8.43;62.12
74778;BME280;63298;53.164;8.610;2023-04-25T08:37:56;101168.94;;;8.54;61.93
74778;BME280;63298;53.164;8.610;2023-04-25T08:40:22;101152.22;;;8.49;61.50
74778;BME280;63298;53.164;8.610;2023-04-25T08:42:48;101170.81;;;8.60;60.91
74778;BME280;63298;53.164;8.610;2023-04-25T08:45:15;101163.22;;;8.62;60.06
74778;BME280;63298;53.164;8.610;2023-04-25T08:47:41;101181.81;;;8.73;61.19
74778;BME280;63298;53.164;8.610;2023-04-25T08:50:08;101175.00;;;8.82;60.14
74778;BME280;63298;53.164;8.610;2023-04-25T08:52:44;101177.88;;;9.00;60.19
74778;BME280;63298;53.164;8.610;2023-04-25T08:55:12;101174.31;;;9.31;59.87
74778;BME280;63298;53.164;8.610;2023-04-25T08:57:39;101173.75;;;9.54;60.08
74778;BME280;63298;53.164;8.610;2023-04-25T09:00:05;101162.28;;;9.57;59.35
74778;BME280;63298;53.164;8.610;2023-04-25T09:02:30;101214.13;;;9.98;60.13
74778;BME280;63298;53.164;8.610;2023-04-25T09:04:56;101209.66;;;9.97;59.81
74778;BME280;63298;53.164;8.610;2023-04-25T09:07:21;101214.06;;;10.05;58.85
74778;BME280;63298;53.164;8.610;2023-04-25T09:09:47;101220.19;;;10.07;59.36
74778;BME280;63298;53.164;8.610;2023-04-25T09:12:12;101223.78;;;10.07;59.62
74778;BME280;63298;53.164;8.610;2023-04-25T09:14:38;101208.50;;;9.86;59.46
74778;BME280;63298;53.164;8.610;2023-04-25T09:17:04;101230.22;;;9.70;60.46
74778;BME280;63298;53.164;8.610;2023-04-25T09:19:48;101244.28;;;9.17;62.82
74778;BME280;63298;53.164;8.610;2023-04-25T09:22:14;101238.00;;;8.90;63.58
74778;BME280;63298;53.164;8.610;2023-04-25T09:24:42;101246.50;;;8.76;64.59
74778;BME280;63298;53.164;8.610;2023-04-25T09:27:17;101238.50;;;8.61;65.77
74778;BME280;63298;53.164;8.610;2023-04-25T09:29:43;101226.91;;;8.52;65.56
74778;BME280;63298;53.164;8.610;2023-04-25T09:34:54;101222.88;;;8.55;64.60
74778;BME280;63298;53.164;8.610;2023-04-25T09:37:21;101225.59;;;8.61;64.42
74778;BME280;63298;53.164;8.610;2023-04-25T09:39:49;101216.06;;;8.77;64.56
74778;BME280;63298;53.164;8.610;2023-04-25T09:42:15;101247.44;;;9.14;64.57
74778;BME280;63298;53.164;8.610;2023-04-25T09:44:42;101264.25;;;9.44;63.26
74778;BME280;63298;53.164;8.610;2023-04-25T09:47:10;101221.34;;;9.30;61.90
74778;BME280;63298;53.164;8.610;2023-04-25T09:49:39;101262.16;;;9.77;61.14
74778;BME280;63298;53.164;8.610;2023-04-25T09:52:04;101221.28;;;9.74;59.50
74778;BME280;63298;53.164;8.610;2023-04-25T09:54:30;101266.09;;;10.26;59.30
74778;BME280;63298;53.164;8.610;2023-04-25T09:56:55;101262.59;;;10.37;57.30
74778;BME280;63298;53.164;8.610;2023-04-25T09:59:22;101272.19;;;10.34;56.93
74778;BME280;63298;53.164;8.610;2023-04-25T10:01:48;101245.16;;;10.12;56.45
74778;BME280;63298;53.164;8.610;2023-04-25T10:04:19;101245.25;;;10.05;54.90
74778;BME280;63298;53.164;8.610;2023-04-25T10:06:45;101266.38;;;10.18;55.75
74778;BME280;63298;53.164;8.610;2023-04-25T10:09:13;101260.25;;;10.09;55.55
74778;BME280;63298;53.164;8.610;2023-04-25T10:11:39;101251.19;;;10.02;56.09
74778;BME280;63298;53.164;8.610;2023-04-25T10:14:05;101282.56;;;10.32;57.41
74778;BME280;63298;53.164;8.610;2023-04-25T10:16:30;101268.69;;;10.21;57.56
74778;BME280;63298;53.164;8.610;2023-04-25T10:18:56;101278.66;;;10.15;57.23
74778;BME280;63298;53.164;8.610;2023-04-25T10:21:22;101270.44;;;10.09;57.47
74778;BME280;63298;53.164;8.610;2023-04-25T10:23:48;101287.75;;;9.91;56.91
74778;BME280;63298;53.164;8.610;2023-04-25T10:26:14;101300.78;;;10.02;57.78
74778;BME280;63298;53.164;8.610;2023-04-25T10:29:00;101299.72;;;10.03;58.08
74778;BME280;63298;53.164;8.610;2023-04-25T10:31:26;101302.19;;;10.18;58.33
74778;BME280;63298;53.164;8.610;2023-04-25T10:33:51;101289.28;;;10.12;58.37
74778;BME280;63298;53.164;8.610;2023-04-25T10:36:18;101289.91;;;10.14;58.75
74778;BME280;63298;53.164;8.610;2023-04-25T10:38:45;101296.16;;;10.34;58.02
74778;BME280;63298;53.164;8.610;2023-04-25T10:41:12;101300.69;;;10.47;57.86
74778;BME280;63298;53.164;8.610;2023-04-25T10:43:42;101290.09;;;10.50;58.06
74778;BME280;63298;53.164;8.610;2023-04-25T10:46:29;101298.44;;;10.62;55.94
74778;BME280;63298;53.164;8.610;2023-04-25T10:48:57;101273.25;;;10.76;57.97
74778;BME280;63298;53.164;8.610;2023-04-25T10:51:35;101275.00;;;10.71;57.89
74778;BME280;63298;53.164;8.610;2023-04-25T10:54:01;101287.31;;;10.93;56.08
74778;BME280;63298;53.164;8.610;2023-04-25T10:56:29;101260.94;;;10.97;56.93
74778;BME280;63298;53.164;8.610;2023-04-25T10:59:14;101282.09;;;11.40;55.81
74778;BME280;63298;53.164;8.610;2023-04-25T11:01:42;101281.53;;;11.67;53.90
74778;BME280;63298;53.164;8.610;2023-04-25T11:09:41;101304.81;;;10.62;56.90
74778;BME280;63298;53.164;8.610;2023-04-25T11:12:09;101315.63;;;10.39;57.88
74778;BME280;63298;53.164;8.610;2023-04-25T11:14:35;101328.31;;;10.09;60.17
74778;BME280;63298;53.164;8.610;2023-04-25T11:17:01;101332.22;;;9.50;62.21
74778;BME280;63298;53.164;8.610;2023-04-25T11:19:27;101346.72;;;9.32;62.68
74778;BME280;63298;53.164;8.610;2023-04-25T11:21:57;101332.13;;;9.19;63.47
74778;BME280;63298;53.164;8.610;2023-04-25T11:24:30;101318.84;;;9.02;60.53
74778;BME280;63298;53.164;8.610;2023-04-25T11:26:57;101308.25;;;9.13;60.67
74778;BME280;63298;53.164;8.610;2023-04-25T11:29:26;101300.41;;;9.03;60.24
74778;BME280;63298;53.164;8.610;2023-04-25T11:31:52;101301.25;;;9.10;60.30
74778;BME280;63298;53.164;8.610;2023-04-25T11:34:18;101322.75;;;9.33;60.15
74778;BME280;63298;53.164;8.610;2023-04-25T11:36:45;101292.13;;;9.16;59.44
74778;BME280;63298;53.164;8.610;2023-04-25T11:39:11;101317.44;;;9.38;58.68
74778;BME280;63298;53.164;8.610;2023-04-25T11:41:41;101309.81;;;9.40;58.88
74778;BME280;63298;53.164;8.610;2023-04-25T11:44:07;101298.53;;;9.54;59.34
74778;BME280;63298;53.164;8.610;2023-04-25T11:46:35;101385.84;;;9.92;59.94
74778;BME280;63298;53.164;8.610;2023-04-25T11:49:01;101324.22;;;9.42;59.60
74778;BME280;63298;53.164;8.610;2023-04-25T11:51:26;101388.03;;;8.99;59.24
74778;BME280;63298;53.164;8.610;2023-04-25T11:53:52;101361.63;;;8.52;62.43
74778;BME280;63298;53.164;8.610;2023-04-25T11:56:17;101375.34;;;8.33;65.28
74778;BME280;63298;53.164;8.610;2023-04-25T11:59:05;101387.00;;;8.41;63.72
74778;BME280;63298;53.164;8.610;2023-04-25T12:01:35;101337.88;;;8.18;63.56
74778;BME280;63298;53.164;8.610;2023-04-25T12:04:15;101344.84;;;8.21;62.67
74778;BME280;63298;53.164;8.610;2023-04-25T12:06:43;101365.81;;;8.35;62.85
74778;BME280;63298;53.164;8.610;2023-04-25T12:09:10;101367.75;;;8.48;61.81
74778;BME280;63298;53.164;8.610;2023-04-25T12:11:52;101390.19;;;8.71;62.31
74778;BME280;63298;53.164;8.610;2023-04-25T12:14:28;101363.53;;;8.65;61.08
74778;BME280;63298;53.164;8.610;2023-04-25T12:16:58;101351.66;;;8.84;61.81
74778;BME280;63298;53.164;8.610;2023-04-25T12:19:25;101365.81;;;9.01;60.46
74778;BME280;63298;53.164;8.610;2023-04-25T12:21:52;101380.38;;;9.28;59.88
74778;BME280;63298;53.164;8.610;2023-04-25T12:24:24;101345.03;;;9.31;59.53
74778;BME280;63298;53.164;8.610;2023-04-25T12:29:24;101339.91;;;9.86;59.29
74778;BME280;63298;53.164;8.610;2023-04-25T12:31:51;101384.25;;;10.22;59.04
74778;BME280;63298;53.164;8.610;2023-04-25T12:34:18;101366.50;;;10.43;58.64
74778;BME280;63298;53.164;8.610;2023-04-25T12:36:44;101343.06;;;10.59;58.62
74778;BME280;63298;53.164;8.610;2023-04-25T12:39:17;101369.91;;;10.95;57.22
74778;BME280;63298;53.164;8.610;2023-04-25T12:41:43;101329.56;;;10.94;56.21
74778;BME280;63298;53.164;8.610;2023-04-25T12:44:09;101374.41;;;11.14;57.09
74778;BME280;63298;53.164;8.610;2023-04-25T12:46:35;101385.78;;;10.50;55.82
74778;BME280;63298;53.164;8.610;2023-04-25T12:49:00;101400.91;;;9.96;57.71
74778;BME280;63298;53.164;8.610;2023-04-25T12:51:26;101403.69;;;9.32;59.42
74778;BME280;63298;53.164;8.610;2023-04-25T12:53:51;101405.84;;;8.97;61.16
74778;BME280;63298;53.164;8.610;2023-04-25T12:56:17;101385.34;;;8.73;60.85
74778;BME280;63298;53.164;8.610;2023-04-25T12:58:42;101392.09;;;8.77;61.24
74778;BME280;63298;53.164;8.610;2023-04-25T13:01:08;101370.28;;;8.69;61.26
74778;BME280;63298;53.164;8.610;2023-04-25T13:03:33;101356.97;;;8.86;61.48
74778;BME280;63298;53.164;8.610;2023-04-25T13:05:59;101358.22;;;8.96;63.22